sensor_id;sensor_type;location;lat;lon;timestamp;temperature;humidity
70851;DHT22;58475;49.662;9.636;2023-04-24T00:00:50;11.43;88.02
70851;DHT22;58475;49.662;9.636;2023-04-24T00:03:16;11.47;87.71
70851;DHT22;58475;49.662;9.636;2023-04-24T00:05:42;11.46;88.23
70851;DHT22;58475;49.662;9.636;2023-04-24T00:08:08;11.39;88.08
70851;DHT22;58475;49.662;9.636;2023-04-24T00:10:33;11.44;87.79
70851;DHT22;58475;49.662;9.636;2023-04-24T00:12:58;11.39;88.08
70851;DHT22;58475;49.662;9.636;2023-04-24T00:15:24;11.30;88.74
70851;DHT22;58475;49.662;9.636;2023-04-24T00:17:49;11.30;88.60
70851;DHT22;58475;49.662;9.636;2023-04-24T00:20:14;11.27;88.87
70851;DHT22;58475;49.662;9.636;2023-04-24T00:22:40;11.24;88.86
70851;DHT22;58475;49.662;9.636;2023-04-24T00:25:05;11.26;89.33
70851;DHT22;58475;49.662;9.636;2023-04-24T00:27:31;11.19;88.87
70851;DHT22;58475;49.662;9.636;2023-04-24T00:29:56;11.15;88.97
70851;DHT22;58475;49.662;9.636;2023-04-24T00:32:21;11.13;88.72
70851;DHT22;58475;49.662;9.636;2023-04-24T00:34:47;11.11;88.49
70851;DHT22;58475;49.662;9.636;2023-04-24T00:37:12;11.09;88.74
70851;DHT22;58475;49.662;9.636;2023-04-24T00:39:38;11.12;88.69
70851;DHT22;58475;49.662;9.636;2023-04-24T00:42:04;11.06;88.42
70851;DHT22;58475;49.662;9.636;2023-04-24T00:44:32;11.18;87.93
70851;DHT22;58475;49.662;9.636;2023-04-24T00:46:58;11.12;87.70
70851;DHT22;58475;49.662;9.636;2023-04-24T00:49:24;11.09;88.05
70851;DHT22;58475;49.662;9.636;2023-04-24T00:51:50;11.15;87.64
70851;DHT22;58475;49.662;9.636;2023-04-24T00:54:17;11.11;87.67
70851;DHT22;58475;49.662;9.636;2023-04-24T00:56:43;11.18;87.56
70851;DHT22;58475;49.662;9.636;2023-04-24T00:59:11;11.19;87.21
70851;DHT22;58475;49.662;9.636;2023-04-24T01:01:38;11.13;87.60
70851;DHT22;58475;49.662;9.636;2023-04-24T01:04:07;11.13;87.89
70851;DHT22;58475;49.662;9.636;2023-04-24T01:06:38;11.12;87.74
70851;DHT22;58475;49.662;9.636;2023-04-24T01:09:03;11.11;87.87
70851;DHT22;58475;49.662;9.636;2023-04-24T01:11:29;11.13;87.68
70851;DHT22;58475;49.662;9.636;2023-04-24T01:13:55;11.18;88.20
70851;DHT22;58475;49.662;9.636;2023-04-24T01:16:21;11.23;88.73
70851;DHT22;58475;49.662;9.636;2023-04-24T01:18:47;11.18;88.44
70851;DHT22;58475;49.662;9.636;2023-04-24T01:21:14;11.13;88.42
70851;DHT22;58475;49.662;9.636;2023-04-24T01:23:40;11.06;88.80
70851;DHT22;58475;49.662;9.636;2023-04-24T01:26:05;11.09;89.04
70851;DHT22;58475;49.662;9.636;2023-04-24T01:28:31;11.05;89.31
70851;DHT22;58475;49.662;9.636;2023-04-24T01:30:56;10.98;89.63
70851;DHT22;58475;49.662;9.636;2023-04-24T01:33:22;11.05;89.14
70851;DHT22;58475;49.662;9.636;2023-04-24T01:35:48;11.05;88.88
70851;DHT22;58475;49.662;9.636;2023-04-24T01:38:14;11.03;89.81
70851;DHT22;58475;49.662;9.636;2023-04-24T01:40:40;10.96;89.48
70851;DHT22;58475;49.662;9.636;2023-04-24T01:43:05;11.03;89.40
70851;DHT22;58475;49.662;9.636;2023-04-24T01:45:31;10.92;89.70
70851;DHT22;58475;49.662;9.636;2023-04-24T01:47:56;10.92;89.34
70851;DHT22;58475;49.662;9.636;2023-04-24T01:50:28;10.89;89.72
70851;DHT22;58475;49.662;9.636;2023-04-24T01:52:54;10.85;89.94
70851;DHT22;58475;49.662;9.636;2023-04-24T01:55:19;10.85;89.76
70851;DHT22;58475;49.662;9.636;2023-04-24T01:57:45;10.85;89.94
70851;DHT22;58475;49.662;9.636;2023-04-24T02:00:10;10.85;89.60
70851;DHT22;58475;49.662;9.636;2023-04-24T02:02:40;10.79;90.17
70851;DHT22;58475;49.662;9.636;2023-04-24T02:05:07;10.82;90.46
70851;DHT22;58475;49.662;9.636;2023-04-24T02:07:35;10.81;90.17
70851;DHT22;58475;49.662;9.636;2023-04-24T02:10:00;10.75;90.54
70851;DHT22;58475;49.662;9.636;2023-04-24T02:12:26;10.68;90.82
70851;DHT22;58475;49.662;9.636;2023-04-24T02:14:51;10.58;91.40
70851;DHT22;58475;49.662;9.636;2023-04-24T02:17:17;10.48;91.56
70851;DHT22;58475;49.662;9.636;2023-04-24T02:19:42;10.47;91.36
70851;DHT22;58475;49.662;9.636;2023-04-24T02:22:09;10.50;91.26
70851;DHT22;58475;49.662;9.636;2023-04-24T02:24:36;10.58;90.91
70851;DHT22;58475;49.662;9.636;2023-04-24T02:27:01;10.60;90.99
70851;DHT22;58475;49.662;9.636;2023-04-24T02:29:28;10.58;91.06
70851;DHT22;58475;49.662;9.636;2023-04-24T02:31:53;10.51;91.35
70851;DHT22;58475;49.662;9.636;2023-04-24T02:34:18;10.52;91.06
70851;DHT22;58475;49.662;9.636;2023-04-24T02:36:44;10.58;90.97
70851;DHT22;58475;49.662;9.636;2023-04-24T02:39:09;10.51;91.07
70851;DHT22;58475;49.662;9.636;2023-04-24T02:41:34;10.44;91.14
70851;DHT22;58475;49.662;9.636;2023-04-24T02:44:00;10.40;91.20
70851;DHT22;58475;49.662;9.636;2023-04-24T02:46:25;10.36;91.11
70851;DHT22;58475;49.662;9.636;2023-04-24T02:48:50;10.33;91.07
70851;DHT22;58475;49.662;9.636;2023-04-24T02:51:16;10.27;91.59
70851;DHT22;58475;49.662;9.636;2023-04-24T02:53:41;10.23;91.44
70851;DHT22;58475;49.662;9.636;2023-04-24T02:56:07;10.12;91.54
70851;DHT22;58475;49.662;9.636;2023-04-24T02:58:32;10.00;92.31
70851;DHT22;58475;49.662;9.636;2023-04-24T03:00:58;10.02;92.07
70851;DHT22;58475;49.662;9.636;2023-04-24T03:03:23;9.99;92.20
70851;DHT22;58475;49.662;9.636;2023-04-24T03:05:49;9.89;92.48
70851;DHT22;58475;49.662;9.636;2023-04-24T03:08:15;9.94;92.68
70851;DHT22;58475;49.662;9.636;2023-04-24T03:10:41;9.96;92.50
70851;DHT22;58475;49.662;9.636;2023-04-24T03:13:07;10.02;92.37
70851;DHT22;58475;49.662;9.636;2023-04-24T03:15:33;10.10;92.48
70851;DHT22;58475;49.662;9.636;2023-04-24T03:17:58;10.07;92.02
70851;DHT22;58475;49.662;9.636;2023-04-24T03:20:25;10.02;92.26
70851;DHT22;58475;49.662;9.636;2023-04-24T03:22:52;10.10;91.96
70851;DHT22;58475;49.662;9.636;2023-04-24T03:25:18;10.12;91.92
70851;DHT22;58475;49.662;9.636;2023-04-24T03:27:45;9.97;92.28
70851;DHT22;58475;49.662;9.636;2023-04-24T03:30:29;10.02;92.28
70851;DHT22;58475;49.662;9.636;2023-04-24T03:32:58;10.13;91.64
70851;DHT22;58475;49.662;9.636;2023-04-24T03:35:27;9.96;91.71
70851;DHT22;58475;49.662;9.636;2023-04-24T03:37:53;9.89;91.88
70851;DHT22;58475;49.662;9.636;2023-04-24T03:40:44;9.96;91.88
70851;DHT22;58475;49.662;9.636;2023-04-24T03:43:28;9.90;91.96
70851;DHT22;58475;49.662;9.636;2023-04-24T03:45:56;9.96;91.44
70851;DHT22;58475;49.662;9.636;2023-04-24T03:48:22;10.02;91.47
70851;DHT22;58475;49.662;9.636;2023-04-24T03:50:48;9.97;91.20
70851;DHT22;58475;49.662;9.636;2023-04-24T03:53:13;10.06;91.20
70851;DHT22;58475;49.662;9.636;2023-04-24T03:55:40;10.09;90.83
70851;DHT22;58475;49.662;9.636;2023-04-24T03:58:06;10.10;91.05
70851;DHT22;58475;49.662;9.636;2023-04-24T04:00:31;10.03;91.44
70851;DHT22;58475;49.662;9.636;2023-04-24T04:03:17;10.04;91.02
70851;DHT22;58475;49.662;9.636;2023-04-24T04:05:42;9.93;91.40
70851;DHT22;58475;49.662;9.636;2023-04-24T04:08:08;9.94;90.93
70851;DHT22;58475;49.662;9.636;2023-04-24T04:10:33;9.92;91.40
70851;DHT22;58475;49.662;9.636;2023-04-24T04:12:58;9.78;91.68
70851;DHT22;58475;49.662;9.636;2023-04-24T04:15:24;9.73;91.95
70851;DHT22;58475;49.662;9.636;2023-04-24T04:17:49;9.99;91.49
70851;DHT22;58475;49.662;9.636;2023-04-24T04:20:15;9.90;92.04
70851;DHT22;58475;49.662;9.636;2023-04-24T04:22:40;9.94;92.28
70851;DHT22;58475;49.662;9.636;2023-04-24T04:25:08;10.03;93.38
70851;DHT22;58475;49.662;9.636;2023-04-24T04:27:34;10.00;93.21
70851;DHT22;58475;49.662;9.636;2023-04-24T04:30:04;9.87;93.76
70851;DHT22;58475;49.662;9.636;2023-04-24T04:32:35;10.00;93.64
70851;DHT22;58475;49.662;9.636;2023-04-24T04:35:02;10.25;91.90
70851;DHT22;58475;49.662;9.636;2023-04-24T04:37:30;10.33;90.99
70851;DHT22;58475;49.662;9.636;2023-04-24T04:40:12;10.40;90.56
70851;DHT22;58475;49.662;9.636;2023-04-24T04:42:46;10.27;89.02
70851;DHT22;58475;49.662;9.636;2023-04-24T04:45:12;10.29;89.63
70851;DHT22;58475;49.662;9.636;2023-04-24T04:47:51;10.29;89.84
70851;DHT22;58475;49.662;9.636;2023-04-24T04:50:16;10.23;89.39
70851;DHT22;58475;49.662;9.636;2023-04-24T04:52:44;10.21;89.67
70851;DHT22;58475;49.662;9.636;2023-04-24T04:55:19;10.14;87.88
70851;DHT22;58475;49.662;9.636;2023-04-24T04:58:17;10.17;88.19
70851;DHT22;58475;49.662;9.636;2023-04-24T05:00:44;10.18;88.30
70851;DHT22;58475;49.662;9.636;2023-04-24T05:03:19;10.16;88.35
70851;DHT22;58475;49.662;9.636;2023-04-24T05:05:45;10.10;88.20
70851;DHT22;58475;49.662;9.636;2023-04-24T05:08:12;10.09;89.99
70851;DHT22;58475;49.662;9.636;2023-04-24T05:10:38;10.14;88.47
70851;DHT22;58475;49.662;9.636;2023-04-24T05:13:03;10.04;89.63
70851;DHT22;58475;49.662;9.636;2023-04-24T05:15:30;10.04;88.79
70851;DHT22;58475;49.662;9.636;2023-04-24T05:17:57;9.99;88.77
70851;DHT22;58475;49.662;9.636;2023-04-24T05:20:23;9.87;89.92
70851;DHT22;58475;49.662;9.636;2023-04-24T05:22:48;9.82;90.62
70851;DHT22;58475;49.662;9.636;2023-04-24T05:25:15;9.93;89.59
70851;DHT22;58475;49.662;9.636;2023-04-24T05:27:46;10.04;89.64
70851;DHT22;58475;49.662;9.636;2023-04-24T05:30:14;10.04;89.36
70851;DHT22;58475;49.662;9.636;2023-04-24T05:32:39;10.16;88.15
70851;DHT22;58475;49.662;9.636;2023-04-24T05:35:05;10.31;88.85
70851;DHT22;58475;49.662;9.636;2023-04-24T05:37:30;10.57;87.59
70851;DHT22;58475;49.662;9.636;2023-04-24T05:39:56;10.47;86.49
70851;DHT22;58475;49.662;9.636;2023-04-24T05:42:22;10.43;86.33
70851;DHT22;58475;49.662;9.636;2023-04-24T05:44:49;10.89;86.54
70851;DHT22;58475;49.662;9.636;2023-04-24T05:47:14;10.88;84.95
70851;DHT22;58475;49.662;9.636;2023-04-24T05:49:40;10.60;85.33
70851;DHT22;58475;49.662;9.636;2023-04-24T05:52:07;10.81;85.17
70851;DHT22;58475;49.662;9.636;2023-04-24T05:54:34;10.81;84.50
70851;DHT22;58475;49.662;9.636;2023-04-24T05:57:00;10.83;84.34
70851;DHT22;58475;49.662;9.636;2023-04-24T06:02:24;11.06;83.41
70851;DHT22;58475;49.662;9.636;2023-04-24T06:04:50;10.92;84.29
70851;DHT22;58475;49.662;9.636;2023-04-24T06:07:17;11.30;83.15
70851;DHT22;58475;49.662;9.636;2023-04-24T06:09:43;11.50;82.86
70851;DHT22;58475;49.662;9.636;2023-04-24T06:12:08;11.29;81.36
70851;DHT22;58475;49.662;9.636;2023-04-24T06:14:48;11.49;81.38
70851;DHT22;58475;49.662;9.636;2023-04-24T06:17:21;11.59;80.74
70851;DHT22;58475;49.662;9.636;2023-04-24T06:19:47;11.63;80.23
70851;DHT22;58475;49.662;9.636;2023-04-24T06:22:12;11.67;79.21
70851;DHT22;58475;49.662;9.636;2023-04-24T06:24:39;12.05;79.03
70851;DHT22;58475;49.662;9.636;2023-04-24T06:27:05;11.94;78.93
70851;DHT22;58475;49.662;9.636;2023-04-24T06:29:30;12.06;78.26
70851;DHT22;58475;49.662;9.636;2023-04-24T06:31:56;12.43;77.87
70851;DHT22;58475;49.662;9.636;2023-04-24T06:34:21;12.48;77.91
70851;DHT22;58475;49.662;9.636;2023-04-24T06:36:47;12.35;76.65
70851;DHT22;58475;49.662;9.636;2023-04-24T06:39:12;12.49;77.79
70851;DHT22;58475;49.662;9.636;2023-04-24T06:41:37;12.94;76.81
70851;DHT22;58475;49.662;9.636;2023-04-24T06:44:03;12.83;75.77
70851;DHT22;58475;49.662;9.636;2023-04-24T06:46:28;12.99;75.78
70851;DHT22;58475;49.662;9.636;2023-04-24T06:48:54;12.87;73.59
70851;DHT22;58475;49.662;9.636;2023-04-24T06:51:23;13.27;74.25
70851;DHT22;58475;49.662;9.636;2023-04-24T06:53:49;13.20;72.65
70851;DHT22;58475;49.662;9.636;2023-04-24T06:56:15;12.84;74.93
70851;DHT22;58475;49.662;9.636;2023-04-24T06:58:40;12.57;73.71
70851;DHT22;58475;49.662;9.636;2023-04-24T07:01:06;12.56;75.25
70851;DHT22;58475;49.662;9.636;2023-04-24T07:03:31;12.73;73.32
70851;DHT22;58475;49.662;9.636;2023-04-24T07:05:56;12.80;73.66
70851;DHT22;58475;49.662;9.636;2023-04-24T07:08:23;13.04;73.39
70851;DHT22;58475;49.662;9.636;2023-04-24T07:10:49;13.37;71.88
70851;DHT22;58475;49.662;9.636;2023-04-24T07:13:15;13.25;72.17
70851;DHT22;58475;49.662;9.636;2023-04-24T07:15:41;12.91;73.37
70851;DHT22;58475;49.662;9.636;2023-04-24T07:18:06;12.83;72.47
70851;DHT22;58475;49.662;9.636;2023-04-24T07:20:32;12.91;71.92
70851;DHT22;58475;49.662;9.636;2023-04-24T07:22:58;13.31;72.25
70851;DHT22;58475;49.662;9.636;2023-04-24T07:25:23;13.70;70.78
70851;DHT22;58475;49.662;9.636;2023-04-24T07:27:49;13.32;71.44
70851;DHT22;58475;49.662;9.636;2023-04-24T07:30:14;12.91;71.73
70851;DHT22;58475;49.662;9.636;2023-04-24T07:32:41;12.29;72.14
70851;DHT22;58475;49.662;9.636;2023-04-24T07:35:07;12.29;72.39
70851;DHT22;58475;49.662;9.636;2023-04-24T07:37:32;12.15;73.25
70851;DHT22;58475;49.662;9.636;2023-04-24T07:39:57;12.24;72.45
70851;DHT22;58475;49.662;9.636;2023-04-24T07:42:23;12.29;72.84
70851;DHT22;58475;49.662;9.636;2023-04-24T07:44:48;12.26;73.18
70851;DHT22;58475;49.662;9.636;2023-04-24T07:47:14;12.26;73.26
70851;DHT22;58475;49.662;9.636;2023-04-24T07:49:41;12.31;72.97
70851;DHT22;58475;49.662;9.636;2023-04-24T07:52:07;12.04;73.29
70851;DHT22;58475;49.662;9.636;2023-04-24T07:54:32;12.11;72.48
70851;DHT22;58475;49.662;9.636;2023-04-24T07:56:58;11.95;74.12
70851;DHT22;58475;49.662;9.636;2023-04-24T07:59:23;11.95;73.68
70851;DHT22;58475;49.662;9.636;2023-04-24T08:01:48;11.88;74.11
70851;DHT22;58475;49.662;9.636;2023-04-24T08:04:14;11.66;75.44
70851;DHT22;58475;49.662;9.636;2023-04-24T08:06:42;11.61;75.52
70851;DHT22;58475;49.662;9.636;2023-04-24T08:09:07;11.49;75.29
70851;DHT22;58475;49.662;9.636;2023-04-24T08:11:32;11.50;75.06
70851;DHT22;58475;49.662;9.636;2023-04-24T08:13:58;11.27;75.63
70851;DHT22;58475;49.662;9.636;2023-04-24T08:16:23;11.26;76.09
70851;DHT22;58475;49.662;9.636;2023-04-24T08:18:52;11.26;77.49
70851;DHT22;58475;49.662;9.636;2023-04-24T08:21:18;11.11;76.91
70851;DHT22;58475;49.662;9.636;2023-04-24T08:23:44;10.82;78.01
70851;DHT22;58475;49.662;9.636;2023-04-24T08:26:10;10.75;80.16
70851;DHT22;58475;49.662;9.636;2023-04-24T08:28:36;10.64;80.20
70851;DHT22;58475;49.662;9.636;2023-04-24T08:31:02;10.69;78.42
70851;DHT22;58475;49.662;9.636;2023-04-24T08:33:27;10.62;79.04
70851;DHT22;58475;49.662;9.636;2023-04-24T08:35:58;10.58;77.47
70851;DHT22;58475;49.662;9.636;2023-04-24T08:38:23;10.86;78.82
70851;DHT22;58475;49.662;9.636;2023-04-24T08:40:48;10.82;76.73
70851;DHT22;58475;49.662;9.636;2023-04-24T08:43:15;11.06;75.65
70851;DHT22;58475;49.662;9.636;2023-04-24T08:45:41;11.40;77.89
70851;DHT22;58475;49.662;9.636;2023-04-24T08:48:07;11.54;75.45
70851;DHT22;58475;49.662;9.636;2023-04-24T08:50:34;12.21;74.39
70851;DHT22;58475;49.662;9.636;2023-04-24T08:53:01;12.04;73.56
70851;DHT22;58475;49.662;9.636;2023-04-24T08:55:26;11.84;72.30
70851;DHT22;58475;49.662;9.636;2023-04-24T08:57:52;12.12;72.24
70851;DHT22;58475;49.662;9.636;2023-04-24T09:00:20;11.87;71.88
70851;DHT22;58475;49.662;9.636;2023-04-24T09:02:49;12.14;73.61
70851;DHT22;58475;49.662;9.636;2023-04-24T09:05:16;11.92;72.22
70851;DHT22;58475;49.662;9.636;2023-04-24T09:07:45;11.87;71.81
70851;DHT22;58475;49.662;9.636;2023-04-24T09:10:11;13.10;70.80
70851;DHT22;58475;49.662;9.636;2023-04-24T09:12:37;13.69;69.94
70851;DHT22;58475;49.662;9.636;2023-04-24T09:15:03;13.17;69.49
70851;DHT22;58475;49.662;9.636;2023-04-24T09:17:30;13.03;67.49
70851;DHT22;58475;49.662;9.636;2023-04-24T09:19:55;12.66;69.08
70851;DHT22;58475;49.662;9.636;2023-04-24T09:22:21;13.03;68.30
70851;DHT22;58475;49.662;9.636;2023-04-24T09:24:47;12.62;69.07
70851;DHT22;58475;49.662;9.636;2023-04-24T09:27:13;13.21;67.66
70851;DHT22;58475;49.662;9.636;2023-04-24T09:29:53;13.39;67.27
70851;DHT22;58475;49.662;9.636;2023-04-24T09:32:22;13.54;66.39
70851;DHT22;58475;49.662;9.636;2023-04-24T09:35:05;13.37;63.77
70851;DHT22;58475;49.662;9.636;2023-04-24T09:37:35;13.08;66.86
70851;DHT22;58475;49.662;9.636;2023-04-24T09:40:27;12.89;68.24
70851;DHT22;58475;49.662;9.636;2023-04-24T09:42:55;12.57;67.24
70851;DHT22;58475;49.662;9.636;2023-04-24T09:45:22;12.86;67.86
70851;DHT22;58475;49.662;9.636;2023-04-24T09:47:51;13.04;67.30
70851;DHT22;58475;49.662;9.636;2023-04-24T09:50:17;13.59;63.74
70851;DHT22;58475;49.662;9.636;2023-04-24T09:52:43;13.86;64.25
70851;DHT22;58475;49.662;9.636;2023-04-24T09:55:18;14.33;64.52
70851;DHT22;58475;49.662;9.636;2023-04-24T09:58:08;14.20;64.41
70851;DHT22;58475;49.662;9.636;2023-04-24T10:00:33;14.02;64.47
70851;DHT22;58475;49.662;9.636;2023-04-24T10:03:05;13.59;61.57
70851;DHT22;58475;49.662;9.636;2023-04-24T10:05:32;13.37;63.09
70851;DHT22;58475;49.662;9.636;2023-04-24T10:08:04;13.12;63.42
70851;DHT22;58475;49.662;9.636;2023-04-24T10:10:31;12.87;64.93
70851;DHT22;58475;49.662;9.636;2023-04-24T10:12:57;12.63;65.00
70851;DHT22;58475;49.662;9.636;2023-04-24T10:15:22;12.73;65.34
70851;DHT22;58475;49.662;9.636;2023-04-24T10:17:49;13.73;64.74
70851;DHT22;58475;49.662;9.636;2023-04-24T10:20:22;13.63;64.44
70851;DHT22;58475;49.662;9.636;2023-04-24T10:22:49;12.99;64.96
70851;DHT22;58475;49.662;9.636;2023-04-24T10:25:19;12.84;65.80
70851;DHT22;58475;49.662;9.636;2023-04-24T10:27:46;13.01;64.68
70851;DHT22;58475;49.662;9.636;2023-04-24T10:30:12;13.12;64.44
70851;DHT22;58475;49.662;9.636;2023-04-24T10:32:38;13.18;65.60
70851;DHT22;58475;49.662;9.636;2023-04-24T10:35:03;13.27;65.70
70851;DHT22;58475;49.662;9.636;2023-04-24T10:37:35;13.20;65.67
70851;DHT22;58475;49.662;9.636;2023-04-24T10:40:02;12.53;66.67
70851;DHT22;58475;49.662;9.636;2023-04-24T10:42:28;12.42;67.91
70851;DHT22;58475;49.662;9.636;2023-04-24T10:44:53;12.17;67.64
70851;DHT22;58475;49.662;9.636;2023-04-24T10:47:19;12.08;68.16
70851;DHT22;58475;49.662;9.636;2023-04-24T10:49:45;11.90;68.43
70851;DHT22;58475;49.662;9.636;2023-04-24T10:52:10;11.95;68.91
70851;DHT22;58475;49.662;9.636;2023-04-24T11:00:09;12.57;67.66
70851;DHT22;58475;49.662;9.636;2023-04-24T11:02:38;13.73;65.15
70851;DHT22;58475;49.662;9.636;2023-04-24T11:05:05;13.80;64.41
70851;DHT22;58475;49.662;9.636;2023-04-24T11:08:10;13.45;65.42
70851;DHT22;58475;49.662;9.636;2023-04-24T11:10:45;13.69;65.37
70851;DHT22;58475;49.662;9.636;2023-04-24T11:13:15;13.37;66.61
70851;DHT22;58475;49.662;9.636;2023-04-24T11:15:41;13.08;67.05
70851;DHT22;58475;49.662;9.636;2023-04-24T11:18:13;12.99;66.51
70851;DHT22;58475;49.662;9.636;2023-04-24T11:20:42;13.52;66.07
70851;DHT22;58475;49.662;9.636;2023-04-24T11:23:07;13.52;65.33
70851;DHT22;58475;49.662;9.636;2023-04-24T11:25:35;13.54;65.03
70851;DHT22;58475;49.662;9.636;2023-04-24T11:28:03;13.12;64.76
70851;DHT22;58475;49.662;9.636;2023-04-24T11:30:29;12.84;65.32
70851;DHT22;58475;49.662;9.636;2023-04-24T11:33:02;13.37;65.27
70851;DHT22;58475;49.662;9.636;2023-04-24T11:35:28;13.70;63.73
70851;DHT22;58475;49.662;9.636;2023-04-24T11:37:56;13.87;62.39
70851;DHT22;58475;49.662;9.636;2023-04-24T11:40:22;14.71;61.59
70851;DHT22;58475;49.662;9.636;2023-04-24T11:42:49;14.50;60.82
70851;DHT22;58475;49.662;9.636;2023-04-24T11:45:17;14.71;62.25
70851;DHT22;58475;49.662;9.636;2023-04-24T11:47:44;14.26;61.91
70851;DHT22;58475;49.662;9.636;2023-04-24T11:50:15;13.93;63.33
70851;DHT22;58475;49.662;9.636;2023-04-24T11:52:48;13.31;63.60
70851;DHT22;58475;49.662;9.636;2023-04-24T11:57:39;13.58;64.57
70851;DHT22;58475;49.662;9.636;2023-04-24T12:00:18;13.54;64.30
70851;DHT22;58475;49.662;9.636;2023-04-24T12:02:44;14.56;62.88
70851;DHT22;58475;49.662;9.636;2023-04-24T12:05:19;14.33;61.97
70851;DHT22;58475;49.662;9.636;2023-04-24T12:07:45;14.68;61.60
70851;DHT22;58475;49.662;9.636;2023-04-24T12:10:10;14.81;60.77
70851;DHT22;58475;49.662;9.636;2023-04-24T12:12:35;14.13;61.99
70851;DHT22;58475;49.662;9.636;2023-04-24T12:15:06;14.05;63.06
70851;DHT22;58475;49.662;9.636;2023-04-24T12:17:32;13.75;63.41
70851;DHT22;58475;49.662;9.636;2023-04-24T12:22:28;13.85;64.34
70851;DHT22;58475;49.662;9.636;2023-04-24T12:25:02;13.31;65.37
70851;DHT22;58475;49.662;9.636;2023-04-24T12:27:32;13.45;66.61
70851;DHT22;58475;49.662;9.636;2023-04-24T12:30:00;13.62;64.73
70851;DHT22;58475;49.662;9.636;2023-04-24T12:32:26;13.90;63.69
70851;DHT22;58475;49.662;9.636;2023-04-24T12:34:53;14.06;62.78
70851;DHT22;58475;49.662;9.636;2023-04-24T12:37:18;14.31;62.74
70851;DHT22;58475;49.662;9.636;2023-04-24T12:42:27;14.88;61.46
70851;DHT22;58475;49.662;9.636;2023-04-24T12:44:59;14.36;61.36
70851;DHT22;58475;49.662;9.636;2023-04-24T12:47:25;15.12;62.38
70851;DHT22;58475;49.662;9.636;2023-04-24T12:49:51;14.19;63.37
70851;DHT22;58475;49.662;9.636;2023-04-24T12:52:18;13.86;64.12
70851;DHT22;58475;49.662;9.636;2023-04-24T12:54:45;14.26;62.45
70851;DHT22;58475;49.662;9.636;2023-04-24T12:57:11;14.31;64.91
70851;DHT22;58475;49.662;9.636;2023-04-24T12:59:36;14.38;62.23
70851;DHT22;58475;49.662;9.636;2023-04-24T13:02:02;13.93;64.68
70851;DHT22;58475;49.662;9.636;2023-04-24T13:04:27;14.68;64.10
70851;DHT22;58475;49.662;9.636;2023-04-24T13:06:52;15.16;62.55
70851;DHT22;58475;49.662;9.636;2023-04-24T13:09:18;15.03;60.29
70851;DHT22;58475;49.662;9.636;2023-04-24T13:11:43;14.98;61.65
70851;DHT22;58475;49.662;9.636;2023-04-24T13:14:08;14.99;59.94
70851;DHT22;58475;49.662;9.636;2023-04-24T13:16:34;15.33;58.59
70851;DHT22;58475;49.662;9.636;2023-04-24T13:18:59;15.42;59.27
70851;DHT22;58475;49.662;9.636;2023-04-24T13:21:25;15.70;58.73
70851;DHT22;58475;49.662;9.636;2023-04-24T13:23:51;15.50;57.96
70851;DHT22;58475;49.662;9.636;2023-04-24T13:26:17;16.28;58.49
70851;DHT22;58475;49.662;9.636;2023-04-24T13:28:42;15.60;57.11
70851;DHT22;58475;49.662;9.636;2023-04-24T13:31:07;15.28;57.76
70851;DHT22;58475;49.662;9.636;2023-04-24T13:33:33;15.29;55.94
70851;DHT22;58475;49.662;9.636;2023-04-24T13:35:58;14.91;57.59
70851;DHT22;58475;49.662;9.636;2023-04-24T13:38:23;15.05;59.14
70851;DHT22;58475;49.662;9.636;2023-04-24T13:40:49;14.31;60.48
70851;DHT22;58475;49.662;9.636;2023-04-24T13:43:14;14.34;61.59
70851;DHT22;58475;49.662;9.636;2023-04-24T13:45:40;13.80;61.30
70851;DHT22;58475;49.662;9.636;2023-04-24T13:48:06;13.35;61.83
70851;DHT22;58475;49.662;9.636;2023-04-24T13:50:31;13.32;63.78
70851;DHT22;58475;49.662;9.636;2023-04-24T13:52:57;13.41;63.26
70851;DHT22;58475;49.662;9.636;2023-04-24T13:55:22;13.32;63.04
70851;DHT22;58475;49.662;9.636;2023-04-24T13:57:48;13.08;63.70
70851;DHT22;58475;49.662;9.636;2023-04-24T14:00:14;13.00;63.33
70851;DHT22;58475;49.662;9.636;2023-04-24T14:02:40;12.97;63.29
70851;DHT22;58475;49.662;9.636;2023-04-24T14:05:05;13.15;62.45
70851;DHT22;58475;49.662;9.636;2023-04-24T14:07:31;13.52;61.83
70851;DHT22;58475;49.662;9.636;2023-04-24T14:09:57;13.92;60.71
70851;DHT22;58475;49.662;9.636;2023-04-24T14:12:22;14.64;60.42
70851;DHT22;58475;49.662;9.636;2023-04-24T14:14:47;14.51;58.42
70851;DHT22;58475;49.662;9.636;2023-04-24T14:17:15;15.09;59.19
70851;DHT22;58475;49.662;9.636;2023-04-24T14:19:41;14.91;58.68
70851;DHT22;58475;49.662;9.636;2023-04-24T14:22:06;15.00;60.47
70851;DHT22;58475;49.662;9.636;2023-04-24T14:24:32;14.89;59.05
70851;DHT22;58475;49.662;9.636;2023-04-24T14:26:57;14.87;60.28
70851;DHT22;58475;49.662;9.636;2023-04-24T14:29:22;14.12;62.06
70851;DHT22;58475;49.662;9.636;2023-04-24T14:31:48;14.02;61.85
70851;DHT22;58475;49.662;9.636;2023-04-24T14:34:14;13.69;63.01
70851;DHT22;58475;49.662;9.636;2023-04-24T14:36:39;14.09;62.19
70851;DHT22;58475;49.662;9.636;2023-04-24T14:39:04;14.41;61.86
70851;DHT22;58475;49.662;9.636;2023-04-24T14:41:31;14.44;61.16
70851;DHT22;58475;49.662;9.636;2023-04-24T14:43:57;14.12;63.13
70851;DHT22;58475;49.662;9.636;2023-04-24T14:46:23;14.93;61.02
70851;DHT22;58475;49.662;9.636;2023-04-24T14:48:48;14.88;61.31
70851;DHT22;58475;49.662;9.636;2023-04-24T14:51:13;14.69;60.02
70851;DHT22;58475;49.662;9.636;2023-04-24T14:53:39;14.56;60.16
70851;DHT22;58475;49.662;9.636;2023-04-24T14:56:04;14.48;59.69
70851;DHT22;58475;49.662;9.636;2023-04-24T14:58:30;14.02;61.10
70851;DHT22;58475;49.662;9.636;2023-04-24T15:00:55;14.03;61.43
70851;DHT22;58475;49.662;9.636;2023-04-24T15:03:21;14.24;60.73
70851;DHT22;58475;49.662;9.636;2023-04-24T15:05:47;14.58;60.67
70851;DHT22;58475;49.662;9.636;2023-04-24T15:08:12;14.71;59.96
70851;DHT22;58475;49.662;9.636;2023-04-24T15:10:38;14.41;60.67
70851;DHT22;58475;49.662;9.636;2023-04-24T15:13:03;13.95;61.17
70851;DHT22;58475;49.662;9.636;2023-04-24T15:15:28;13.63;62.91
70851;DHT22;58475;49.662;9.636;2023-04-24T15:17:54;13.31;62.59
70851;DHT22;58475;49.662;9.636;2023-04-24T15:20:19;13.20;62.75
70851;DHT22;58475;49.662;9.636;2023-04-24T15:22:44;12.64;65.54
70851;DHT22;58475;49.662;9.636;2023-04-24T15:25:10;12.39;68.21
70851;DHT22;58475;49.662;9.636;2023-04-24T15:27:43;12.70;67.02
70851;DHT22;58475;49.662;9.636;2023-04-24T15:30:09;13.69;65.05
70851;DHT22;58475;49.662;9.636;2023-04-24T15:32:35;13.93;64.15
70851;DHT22;58475;49.662;9.636;2023-04-24T15:35:01;13.68;63.28
70851;DHT22;58475;49.662;9.636;2023-04-24T15:37:26;14.16;63.25
70851;DHT22;58475;49.662;9.636;2023-04-24T15:39:52;14.07;61.80
70851;DHT22;58475;49.662;9.636;2023-04-24T15:42:17;14.20;62.34
70851;DHT22;58475;49.662;9.636;2023-04-24T15:44:42;14.96;60.87
70851;DHT22;58475;49.662;9.636;2023-04-24T15:47:08;14.54;61.81